Terminal Aerodrome Forecast
Issued by NWS Sioux Falls, SD

Home | Current Version | Previous Version | Graphics & Text | Print | Product List | Glossary On
Versions: 1 2 3 4 5 6 7 8 9 10 11 12 13 14
168
FTUS43 KFSD 201120
TAFHON
TAF
KHON 201120Z 2012/2112 31010KT P6SM BKN015 OVC020
      TEMPO 2012/2014 BKN008
     FM201500 32012KT P6SM OVC025
     FM202200 35009KT P6SM BKN035
     FM210100 36007KT P6SM SCT040
     FM210400 VRB03KT P6SM FEW110
     FM211100 VRB03KT 4SM BR FEW250=

USA.gov is the U.S. government's official web portal to all federal, state and local government web resources and services.